<?xml version="1.0" encoding="UTF-8" standalone="no" ?>
<gpx xmlns="http://www.topografix.com/GPX/1/1" xmlns:xsi="http://www.w3.org/2001/XMLSchema-instance" xsi:schemaLocation="http://www.topografix.com/GPX/1/1 http://www.topografix.com/GPX/1/1/gpx.xsd" version="1.1" creator="VisuGPX - https://www.visugpx.com">
  <metadata>
    <name>Saint Die - sentier des schlitteurs- roche aux fees - sentier des ducs </name>
  </metadata>
  <trk>
    <name><![CDATA[2022-09-19 16]]></name>
    <trkseg>
      <trkpt lat="49.08365" lon="7.12103">
        <ele>233.4</ele>
      </trkpt>
    </trkseg>
  </trk>
  <trk>
    <name><![CDATA[2022-09-19 16:39:45]]></name>
    <extensions>
      <line xmlns="http://www.topografix.com/GPX/gpx_style/0/2">
        <color>0000FF</color>
        <width>4</width>
      </line>
    </extensions>
    <trkseg>
      <trkpt lat="48.28997" lon="6.96666">
        <ele>423.1</ele>
        <time>2022-09-19T07:36:32Z</time>
      </trkpt>
      <trkpt lat="48.28997" lon="6.96702">
        <ele>428.67</ele>
        <time>2022-09-19T07:37:39Z</time>
      </trkpt>
      <trkpt lat="48.29002" lon="6.96709">
        <ele>428.67</ele>
        <time>2022-09-19T07:37:50Z</time>
      </trkpt>
      <trkpt lat="48.29009" lon="6.96722">
        <ele>427.72</ele>
        <time>2022-09-19T07:38:03Z</time>
      </trkpt>
      <trkpt lat="48.29009" lon="6.96734">
        <ele>428</ele>
        <time>2022-09-19T07:38:11Z</time>
      </trkpt>
      <trkpt lat="48.29008" lon="6.96742">
        <ele>428.43</ele>
        <time>2022-09-19T07:38:26Z</time>
      </trkpt>
      <trkpt lat="48.29011" lon="6.96752">
        <ele>428.48</ele>
        <time>2022-09-19T07:38:33Z</time>
      </trkpt>
      <trkpt lat="48.29011" lon="6.96753">
        <ele>428.52</ele>
        <time>2022-09-19T07:38:34Z</time>
      </trkpt>
      <trkpt lat="48.29012" lon="6.96754">
        <ele>428.54</ele>
        <time>2022-09-19T07:38:35Z</time>
      </trkpt>
      <trkpt lat="48.29013" lon="6.96756">
        <ele>428.63</ele>
        <time>2022-09-19T07:38:36Z</time>
      </trkpt>
      <trkpt lat="48.29013" lon="6.96758">
        <ele>428.67</ele>
        <time>2022-09-19T07:38:37Z</time>
      </trkpt>
      <trkpt lat="48.29014" lon="6.96759">
        <ele>428.75</ele>
        <time>2022-09-19T07:38:38Z</time>
      </trkpt>
      <trkpt lat="48.29015" lon="6.9676">
        <ele>428.83</ele>
        <time>2022-09-19T07:38:39Z</time>
      </trkpt>
      <trkpt lat="48.29015" lon="6.96762">
        <ele>428.88</ele>
        <time>2022-09-19T07:38:40Z</time>
      </trkpt>
      <trkpt lat="48.29016" lon="6.96763">
        <ele>428.91</ele>
        <time>2022-09-19T07:38:41Z</time>
      </trkpt>
      <trkpt lat="48.29017" lon="6.96765">
        <ele>428.95</ele>
        <time>2022-09-19T07:38:42Z</time>
      </trkpt>
      <trkpt lat="48.29017" lon="6.96766">
        <ele>429.01</ele>
        <time>2022-09-19T07:38:43Z</time>
      </trkpt>
      <trkpt lat="48.29018" lon="6.96775">
        <ele>429.49</ele>
        <time>2022-09-19T07:38:48Z</time>
      </trkpt>
      <trkpt lat="48.29019" lon="6.96783">
        <ele>429.94</ele>
        <time>2022-09-19T07:38:52Z</time>
      </trkpt>
      <trkpt lat="48.29019" lon="6.96785">
        <ele>429.98</ele>
        <time>2022-09-19T07:38:53Z</time>
      </trkpt>
      <trkpt lat="48.2902" lon="6.96787">
        <ele>430.07</ele>
        <time>2022-09-19T07:38:54Z</time>
      </trkpt>
      <trkpt lat="48.2902" lon="6.96789">
        <ele>430.18</ele>
        <time>2022-09-19T07:38:55Z</time>
      </trkpt>
      <trkpt lat="48.2902" lon="6.96791">
        <ele>430.23</ele>
        <time>2022-09-19T07:38:56Z</time>
      </trkpt>
      <trkpt lat="48.2902" lon="6.96792">
        <ele>430.28</ele>
        <time>2022-09-19T07:38:57Z</time>
      </trkpt>
      <trkpt lat="48.29022" lon="6.96802">
        <ele>430.63</ele>
        <time>2022-09-19T07:39:03Z</time>
      </trkpt>
      <trkpt lat="48.29022" lon="6.96804">
        <ele>430.71</ele>
        <time>2022-09-19T07:39:04Z</time>
      </trkpt>
      <trkpt lat="48.29022" lon="6.96805">
        <ele>430.82</ele>
        <time>2022-09-19T07:39:05Z</time>
      </trkpt>
      <trkpt lat="48.29023" lon="6.96807">
        <ele>430.96</ele>
        <time>2022-09-19T07:39:06Z</time>
      </trkpt>
      <trkpt lat="48.29023" lon="6.96809">
        <ele>431.08</ele>
        <time>2022-09-19T07:39:07Z</time>
      </trkpt>
      <trkpt lat="48.29023" lon="6.9681">
        <ele>431.18</ele>
        <time>2022-09-19T07:39:08Z</time>
      </trkpt>
      <trkpt lat="48.29024" lon="6.96818">
        <ele>431.8</ele>
        <time>2022-09-19T07:39:13Z</time>
      </trkpt>
      <trkpt lat="48.29024" lon="6.9682">
        <ele>431.96</ele>
        <time>2022-09-19T07:39:14Z</time>
      </trkpt>
      <trkpt lat="48.29025" lon="6.96822">
        <ele>432.1</ele>
        <time>2022-09-19T07:39:15Z</time>
      </trkpt>
      <trkpt lat="48.29025" lon="6.96823">
        <ele>432.23</ele>
        <time>2022-09-19T07:39:16Z</time>
      </trkpt>
      <trkpt lat="48.29025" lon="6.96825">
        <ele>432.36</ele>
        <time>2022-09-19T07:39:17Z</time>
      </trkpt>
      <trkpt lat="48.29026" lon="6.96826">
        <ele>432.49</ele>
        <time>2022-09-19T07:39:18Z</time>
      </trkpt>
      <trkpt lat="48.29026" lon="6.96833">
        <ele>433</ele>
        <time>2022-09-19T07:39:23Z</time>
      </trkpt>
      <trkpt lat="48.29027" lon="6.96839">
        <ele>433.14</ele>
        <time>2022-09-19T07:39:26Z</time>
      </trkpt>
      <trkpt lat="48.29028" lon="6.96841">
        <ele>433.15</ele>
        <time>2022-09-19T07:39:27Z</time>
      </trkpt>
      <trkpt lat="48.29028" lon="6.96843">
        <ele>433.16</ele>
        <time>2022-09-19T07:39:28Z</time>
      </trkpt>
      <trkpt lat="48.29029" lon="6.96847">
        <ele>433.15</ele>
        <time>2022-09-19T07:39:31Z</time>
      </trkpt>
      <trkpt lat="48.2903" lon="6.96849">
        <ele>433.13</ele>
        <time>2022-09-19T07:39:32Z</time>
      </trkpt>
      <trkpt lat="48.29031" lon="6.9685">
        <ele>433.13</ele>
        <time>2022-09-19T07:39:33Z</time>
      </trkpt>
      <trkpt lat="48.29055" lon="6.96894">
        <ele>479.2</ele>
        <time>2022-09-19T07:40:08Z</time>
      </trkpt>
      <trkpt lat="48.29075" lon="6.96922">
        <ele>479.59</ele>
        <time>2022-09-19T07:40:34Z</time>
      </trkpt>
      <trkpt lat="48.29089" lon="6.96955">
        <ele>478.2</ele>
        <time>2022-09-19T07:41:06Z</time>
      </trkpt>
      <trkpt lat="48.29105" lon="6.96966">
        <ele>476.2</ele>
        <time>2022-09-19T07:41:32Z</time>
      </trkpt>
      <trkpt lat="48.29126" lon="6.9694">
        <ele>472.59</ele>
        <time>2022-09-19T07:41:59Z</time>
      </trkpt>
      <trkpt lat="48.29147" lon="6.96916">
        <ele>470.2</ele>
        <time>2022-09-19T07:42:23Z</time>
      </trkpt>
      <trkpt lat="48.29168" lon="6.96889">
        <ele>468</ele>
        <time>2022-09-19T07:42:51Z</time>
      </trkpt>
      <trkpt lat="48.29184" lon="6.96858">
        <ele>462.59</ele>
        <time>2022-09-19T07:43:18Z</time>
      </trkpt>
      <trkpt lat="48.29191" lon="6.96821">
        <ele>457.59</ele>
        <time>2022-09-19T07:43:51Z</time>
      </trkpt>
      <trkpt lat="48.29195" lon="6.96785">
        <ele>453</ele>
        <time>2022-09-19T07:44:14Z</time>
      </trkpt>
      <trkpt lat="48.29199" lon="6.96747">
        <ele>385</ele>
        <time>2022-09-19T07:44:39Z</time>
      </trkpt>
      <trkpt lat="48.29206" lon="6.9671">
        <ele>443.2</ele>
        <time>2022-09-19T07:45:04Z</time>
      </trkpt>
      <trkpt lat="48.29209" lon="6.9667">
        <ele>438.4</ele>
        <time>2022-09-19T07:45:29Z</time>
      </trkpt>
      <trkpt lat="48.29212" lon="6.9663">
        <ele>434.8</ele>
        <time>2022-09-19T07:45:52Z</time>
      </trkpt>
      <trkpt lat="48.29211" lon="6.96592">
        <ele>431.59</ele>
        <time>2022-09-19T07:46:13Z</time>
      </trkpt>
      <trkpt lat="48.29203" lon="6.96552">
        <ele>428.4</ele>
        <time>2022-09-19T07:46:34Z</time>
      </trkpt>
      <trkpt lat="48.29193" lon="6.96512">
        <ele>425.4</ele>
        <time>2022-09-19T07:46:55Z</time>
      </trkpt>
      <trkpt lat="48.29188" lon="6.96469">
        <ele>422.4</ele>
        <time>2022-09-19T07:47:16Z</time>
      </trkpt>
      <trkpt lat="48.29186" lon="6.9643">
        <ele>419.2</ele>
        <time>2022-09-19T07:47:38Z</time>
      </trkpt>
      <trkpt lat="48.29196" lon="6.96399">
        <ele>415.8</ele>
        <time>2022-09-19T07:48:00Z</time>
      </trkpt>
      <trkpt lat="48.29223" lon="6.9639">
        <ele>413.2</ele>
        <time>2022-09-19T07:48:21Z</time>
      </trkpt>
      <trkpt lat="48.2925" lon="6.96389">
        <ele>411.4</ele>
        <time>2022-09-19T07:48:42Z</time>
      </trkpt>
      <trkpt lat="48.29275" lon="6.96403">
        <ele>410.4</ele>
        <time>2022-09-19T07:49:08Z</time>
      </trkpt>
      <trkpt lat="48.29299" lon="6.96421">
        <ele>409.59</ele>
        <time>2022-09-19T07:49:30Z</time>
      </trkpt>
      <trkpt lat="48.29324" lon="6.96437">
        <ele>409.4</ele>
        <time>2022-09-19T07:49:53Z</time>
      </trkpt>
      <trkpt lat="48.29349" lon="6.96452">
        <ele>409.59</ele>
        <time>2022-09-19T07:50:16Z</time>
      </trkpt>
      <trkpt lat="48.29375" lon="6.96465">
        <ele>410.59</ele>
        <time>2022-09-19T07:50:40Z</time>
      </trkpt>
      <trkpt lat="48.29399" lon="6.96482">
        <ele>411.8</ele>
        <time>2022-09-19T07:51:05Z</time>
      </trkpt>
      <trkpt lat="48.29416" lon="6.96514">
        <ele>414.59</ele>
        <time>2022-09-19T07:51:33Z</time>
      </trkpt>
      <trkpt lat="48.29433" lon="6.96544">
        <ele>418.2</ele>
        <time>2022-09-19T07:52:03Z</time>
      </trkpt>
      <trkpt lat="48.29451" lon="6.96575">
        <ele>420.8</ele>
        <time>2022-09-19T07:52:32Z</time>
      </trkpt>
      <trkpt lat="48.29474" lon="6.96593">
        <ele>420.59</ele>
        <time>2022-09-19T07:53:00Z</time>
      </trkpt>
      <trkpt lat="48.29497" lon="6.96614">
        <ele>422.59</ele>
        <time>2022-09-19T07:53:30Z</time>
      </trkpt>
      <trkpt lat="48.29521" lon="6.96631">
        <ele>426.2</ele>
        <time>2022-09-19T07:53:57Z</time>
      </trkpt>
      <trkpt lat="48.29543" lon="6.96654">
        <ele>428</ele>
        <time>2022-09-19T07:54:21Z</time>
      </trkpt>
      <trkpt lat="48.29566" lon="6.96672">
        <ele>429.4</ele>
        <time>2022-09-19T07:54:47Z</time>
      </trkpt>
      <trkpt lat="48.29593" lon="6.96673">
        <ele>432.8</ele>
        <time>2022-09-19T07:55:15Z</time>
      </trkpt>
      <trkpt lat="48.29615" lon="6.96669">
        <ele>436</ele>
        <time>2022-09-19T07:55:44Z</time>
      </trkpt>
      <trkpt lat="48.29642" lon="6.96663">
        <ele>442.4</ele>
        <time>2022-09-19T07:56:22Z</time>
      </trkpt>
      <trkpt lat="48.29668" lon="6.96657">
        <ele>446.2</ele>
        <time>2022-09-19T07:56:56Z</time>
      </trkpt>
      <trkpt lat="48.29695" lon="6.9665">
        <ele>449.2</ele>
        <time>2022-09-19T07:57:31Z</time>
      </trkpt>
      <trkpt lat="48.29721" lon="6.96643">
        <ele>451.4</ele>
        <time>2022-09-19T07:58:05Z</time>
      </trkpt>
      <trkpt lat="48.29748" lon="6.96634">
        <ele>455.8</ele>
        <time>2022-09-19T07:58:39Z</time>
      </trkpt>
      <trkpt lat="48.29774" lon="6.96633">
        <ele>460.8</ele>
        <time>2022-09-19T07:59:05Z</time>
      </trkpt>
      <trkpt lat="48.29801" lon="6.9663">
        <ele>462.2</ele>
        <time>2022-09-19T07:59:34Z</time>
      </trkpt>
      <trkpt lat="48.29823" lon="6.96608">
        <ele>465</ele>
        <time>2022-09-19T08:00:51Z</time>
      </trkpt>
      <trkpt lat="48.29849" lon="6.966">
        <ele>470.8</ele>
        <time>2022-09-19T08:01:31Z</time>
      </trkpt>
      <trkpt lat="48.29869" lon="6.96576">
        <ele>478.4</ele>
        <time>2022-09-19T08:02:25Z</time>
      </trkpt>
      <trkpt lat="48.29872" lon="6.96539">
        <ele>483.2</ele>
        <time>2022-09-19T08:02:59Z</time>
      </trkpt>
      <trkpt lat="48.29885" lon="6.96502">
        <ele>485.4</ele>
        <time>2022-09-19T08:03:26Z</time>
      </trkpt>
      <trkpt lat="48.29902" lon="6.96474">
        <ele>491</ele>
        <time>2022-09-19T08:04:41Z</time>
      </trkpt>
      <trkpt lat="48.29921" lon="6.96448">
        <ele>492.8</ele>
        <time>2022-09-19T08:05:11Z</time>
      </trkpt>
      <trkpt lat="48.29937" lon="6.96418">
        <ele>495.8</ele>
        <time>2022-09-19T08:05:34Z</time>
      </trkpt>
      <trkpt lat="48.29955" lon="6.96392">
        <ele>498.59</ele>
        <time>2022-09-19T08:06:01Z</time>
      </trkpt>
      <trkpt lat="48.29964" lon="6.96395">
        <ele>502.8</ele>
        <time>2022-09-19T08:06:31Z</time>
      </trkpt>
      <trkpt lat="48.29957" lon="6.96433">
        <ele>509.59</ele>
        <time>2022-09-19T08:07:12Z</time>
      </trkpt>
      <trkpt lat="48.2996" lon="6.96469">
        <ele>511.2</ele>
        <time>2022-09-19T08:07:40Z</time>
      </trkpt>
      <trkpt lat="48.29965" lon="6.96508">
        <ele>513.4</ele>
        <time>2022-09-19T08:08:13Z</time>
      </trkpt>
      <trkpt lat="48.29976" lon="6.96543">
        <ele>518.8</ele>
        <time>2022-09-19T08:08:50Z</time>
      </trkpt>
      <trkpt lat="48.29976" lon="6.96544">
        <ele>518.8</ele>
        <time>2022-09-19T08:08:51Z</time>
      </trkpt>
      <trkpt lat="48.29994" lon="6.96572">
        <ele>521.2</ele>
        <time>2022-09-19T08:09:22Z</time>
      </trkpt>
      <trkpt lat="48.30015" lon="6.96584">
        <ele>526</ele>
        <time>2022-09-19T08:10:02Z</time>
      </trkpt>
      <trkpt lat="48.30036" lon="6.96608">
        <ele>528.8</ele>
        <time>2022-09-19T08:10:37Z</time>
      </trkpt>
      <trkpt lat="48.30052" lon="6.96638">
        <ele>534.19</ele>
        <time>2022-09-19T08:11:04Z</time>
      </trkpt>
      <trkpt lat="48.3006" lon="6.96673">
        <ele>539.4</ele>
        <time>2022-09-19T08:11:31Z</time>
      </trkpt>
      <trkpt lat="48.3007" lon="6.96708">
        <ele>543.19</ele>
        <time>2022-09-19T08:12:06Z</time>
      </trkpt>
      <trkpt lat="48.30095" lon="6.96728">
        <ele>546</ele>
        <time>2022-09-19T08:12:39Z</time>
      </trkpt>
      <trkpt lat="48.30113" lon="6.96753">
        <ele>549.4</ele>
        <time>2022-09-19T08:13:07Z</time>
      </trkpt>
      <trkpt lat="48.30121" lon="6.96774">
        <ele>553.4</ele>
        <time>2022-09-19T08:13:39Z</time>
      </trkpt>
      <trkpt lat="48.30132" lon="6.9678">
        <ele>557.4</ele>
        <time>2022-09-19T08:16:25Z</time>
      </trkpt>
      <trkpt lat="48.30132" lon="6.96779">
        <ele>561</ele>
        <time>2022-09-19T08:18:46Z</time>
      </trkpt>
      <trkpt lat="48.3014" lon="6.96813">
        <ele>559.19</ele>
        <time>2022-09-19T08:19:11Z</time>
      </trkpt>
      <trkpt lat="48.30143" lon="6.96851">
        <ele>559</ele>
        <time>2022-09-19T08:19:37Z</time>
      </trkpt>
      <trkpt lat="48.30137" lon="6.96885">
        <ele>510.7</ele>
        <time>2022-09-19T08:20:02Z</time>
      </trkpt>
      <trkpt lat="48.30134" lon="6.96925">
        <ele>560.4</ele>
        <time>2022-09-19T08:20:37Z</time>
      </trkpt>
      <trkpt lat="48.30129" lon="6.96964">
        <ele>560.4</ele>
        <time>2022-09-19T08:21:06Z</time>
      </trkpt>
      <trkpt lat="48.30124" lon="6.97004">
        <ele>559.19</ele>
        <time>2022-09-19T08:21:38Z</time>
      </trkpt>
      <trkpt lat="48.30121" lon="6.9704">
        <ele>563.19</ele>
        <time>2022-09-19T08:22:06Z</time>
      </trkpt>
      <trkpt lat="48.30133" lon="6.97073">
        <ele>565.59</ele>
        <time>2022-09-19T08:22:39Z</time>
      </trkpt>
      <trkpt lat="48.30145" lon="6.97106">
        <ele>568.59</ele>
        <time>2022-09-19T08:23:16Z</time>
      </trkpt>
      <trkpt lat="48.30154" lon="6.97142">
        <ele>568.8</ele>
        <time>2022-09-19T08:23:45Z</time>
      </trkpt>
      <trkpt lat="48.30169" lon="6.97174">
        <ele>571.19</ele>
        <time>2022-09-19T08:24:12Z</time>
      </trkpt>
      <trkpt lat="48.3018" lon="6.97203">
        <ele>574.59</ele>
        <time>2022-09-19T08:24:37Z</time>
      </trkpt>
      <trkpt lat="48.30199" lon="6.97231">
        <ele>581.19</ele>
        <time>2022-09-19T08:25:07Z</time>
      </trkpt>
      <trkpt lat="48.3022" lon="6.97255">
        <ele>586.59</ele>
        <time>2022-09-19T08:25:38Z</time>
      </trkpt>
      <trkpt lat="48.30234" lon="6.97284">
        <ele>592.19</ele>
        <time>2022-09-19T08:26:12Z</time>
      </trkpt>
      <trkpt lat="48.30252" lon="6.97309">
        <ele>595.8</ele>
        <time>2022-09-19T08:26:48Z</time>
      </trkpt>
      <trkpt lat="48.30277" lon="6.97324">
        <ele>596.4</ele>
        <time>2022-09-19T08:27:21Z</time>
      </trkpt>
      <trkpt lat="48.30297" lon="6.97347">
        <ele>597</ele>
        <time>2022-09-19T08:27:46Z</time>
      </trkpt>
      <trkpt lat="48.30313" lon="6.97378">
        <ele>599.4</ele>
        <time>2022-09-19T08:28:24Z</time>
      </trkpt>
      <trkpt lat="48.30321" lon="6.97417">
        <ele>603</ele>
        <time>2022-09-19T08:28:55Z</time>
      </trkpt>
      <trkpt lat="48.30328" lon="6.97454">
        <ele>603.8</ele>
        <time>2022-09-19T08:29:28Z</time>
      </trkpt>
      <trkpt lat="48.30327" lon="6.97493">
        <ele>565.7</ele>
        <time>2022-09-19T08:29:54Z</time>
      </trkpt>
      <trkpt lat="48.30326" lon="6.97528">
        <ele>602.4</ele>
        <time>2022-09-19T08:30:31Z</time>
      </trkpt>
      <trkpt lat="48.30333" lon="6.97567">
        <ele>607.19</ele>
        <time>2022-09-19T08:30:57Z</time>
      </trkpt>
      <trkpt lat="48.30348" lon="6.97598">
        <ele>609.59</ele>
        <time>2022-09-19T08:31:33Z</time>
      </trkpt>
      <trkpt lat="48.30361" lon="6.97631">
        <ele>610</ele>
        <time>2022-09-19T08:32:03Z</time>
      </trkpt>
      <trkpt lat="48.30372" lon="6.97653">
        <ele>577.4</ele>
        <time>2022-09-19T08:32:30Z</time>
      </trkpt>
      <trkpt lat="48.30381" lon="6.97687">
        <ele>616.59</ele>
        <time>2022-09-19T08:32:54Z</time>
      </trkpt>
      <trkpt lat="48.3037" lon="6.97723">
        <ele>620.19</ele>
        <time>2022-09-19T08:33:31Z</time>
      </trkpt>
      <trkpt lat="48.30359" lon="6.97758">
        <ele>621</ele>
        <time>2022-09-19T08:34:11Z</time>
      </trkpt>
      <trkpt lat="48.30349" lon="6.97791">
        <ele>623.19</ele>
        <time>2022-09-19T08:34:48Z</time>
      </trkpt>
      <trkpt lat="48.30342" lon="6.97828">
        <ele>627.59</ele>
        <time>2022-09-19T08:35:30Z</time>
      </trkpt>
      <trkpt lat="48.30336" lon="6.97869">
        <ele>633.59</ele>
        <time>2022-09-19T08:36:01Z</time>
      </trkpt>
      <trkpt lat="48.30321" lon="6.97898">
        <ele>635</ele>
        <time>2022-09-19T08:36:43Z</time>
      </trkpt>
      <trkpt lat="48.30313" lon="6.97925">
        <ele>638</ele>
        <time>2022-09-19T08:37:27Z</time>
      </trkpt>
      <trkpt lat="48.30309" lon="6.97963">
        <ele>641.59</ele>
        <time>2022-09-19T08:38:10Z</time>
      </trkpt>
      <trkpt lat="48.30286" lon="6.97976">
        <ele>643.8</ele>
        <time>2022-09-19T08:38:46Z</time>
      </trkpt>
      <trkpt lat="48.3028" lon="6.98016">
        <ele>647</ele>
        <time>2022-09-19T08:40:08Z</time>
      </trkpt>
      <trkpt lat="48.30294" lon="6.98045">
        <ele>651.19</ele>
        <time>2022-09-19T08:40:46Z</time>
      </trkpt>
      <trkpt lat="48.30294" lon="6.98051">
        <ele>665</ele>
        <time>2022-09-19T08:41:26Z</time>
      </trkpt>
      <trkpt lat="48.30275" lon="6.98036">
        <ele>668</ele>
        <time>2022-09-19T08:41:55Z</time>
      </trkpt>
      <trkpt lat="48.30256" lon="6.98038">
        <ele>600.07</ele>
        <time>2022-09-19T08:43:05Z</time>
      </trkpt>
      <trkpt lat="48.30257" lon="6.98038">
        <ele>619.8</ele>
        <time>2022-09-19T08:43:06Z</time>
      </trkpt>
      <trkpt lat="48.30257" lon="6.98033">
        <ele>626.56</ele>
        <time>2022-09-19T08:43:10Z</time>
      </trkpt>
      <trkpt lat="48.30257" lon="6.98033">
        <ele>626.75</ele>
        <time>2022-09-19T08:43:11Z</time>
      </trkpt>
      <trkpt lat="48.30255" lon="6.98076">
        <ele>635.8</ele>
        <time>2022-09-19T08:45:04Z</time>
      </trkpt>
      <trkpt lat="48.30244" lon="6.98123">
        <ele>697.6</ele>
        <time>2022-09-19T08:46:15Z</time>
      </trkpt>
      <trkpt lat="48.30241" lon="6.98162">
        <ele>697.8</ele>
        <time>2022-09-19T08:47:05Z</time>
      </trkpt>
      <trkpt lat="48.30248" lon="6.98197">
        <ele>702</ele>
        <time>2022-09-19T08:48:02Z</time>
      </trkpt>
      <trkpt lat="48.30246" lon="6.98236">
        <ele>708.6</ele>
        <time>2022-09-19T08:48:55Z</time>
      </trkpt>
      <trkpt lat="48.30248" lon="6.98273">
        <ele>714.6</ele>
        <time>2022-09-19T08:49:49Z</time>
      </trkpt>
      <trkpt lat="48.30257" lon="6.98308">
        <ele>723.4</ele>
        <time>2022-09-19T08:50:44Z</time>
      </trkpt>
      <trkpt lat="48.30258" lon="6.98349">
        <ele>727.6</ele>
        <time>2022-09-19T08:51:27Z</time>
      </trkpt>
      <trkpt lat="48.30255" lon="6.98388">
        <ele>730</ele>
        <time>2022-09-19T08:52:00Z</time>
      </trkpt>
      <trkpt lat="48.3025" lon="6.98427">
        <ele>734.4</ele>
        <time>2022-09-19T08:52:57Z</time>
      </trkpt>
      <trkpt lat="48.30252" lon="6.98466">
        <ele>738.19</ele>
        <time>2022-09-19T08:53:30Z</time>
      </trkpt>
      <trkpt lat="48.30257" lon="6.98506">
        <ele>741.4</ele>
        <time>2022-09-19T08:54:05Z</time>
      </trkpt>
      <trkpt lat="48.30257" lon="6.98545">
        <ele>745</ele>
        <time>2022-09-19T08:54:36Z</time>
      </trkpt>
      <trkpt lat="48.30255" lon="6.98585">
        <ele>746</ele>
        <time>2022-09-19T08:55:06Z</time>
      </trkpt>
      <trkpt lat="48.30262" lon="6.98623">
        <ele>749</ele>
        <time>2022-09-19T08:55:55Z</time>
      </trkpt>
      <trkpt lat="48.30262" lon="6.98661">
        <ele>755.19</ele>
        <time>2022-09-19T08:56:42Z</time>
      </trkpt>
      <trkpt lat="48.30269" lon="6.98697">
        <ele>758.6</ele>
        <time>2022-09-19T08:57:46Z</time>
      </trkpt>
      <trkpt lat="48.3027" lon="6.98738">
        <ele>769</ele>
        <time>2022-09-19T08:58:47Z</time>
      </trkpt>
      <trkpt lat="48.30276" lon="6.98753">
        <ele>781</ele>
        <time>2022-09-19T09:00:21Z</time>
      </trkpt>
      <trkpt lat="48.30277" lon="6.98739">
        <ele>731.8</ele>
        <time>2022-09-19T09:05:47Z</time>
      </trkpt>
      <trkpt lat="48.30286" lon="6.98758">
        <ele>744.29</ele>
        <time>2022-09-19T09:07:43Z</time>
      </trkpt>
      <trkpt lat="48.30286" lon="6.98757">
        <ele>744.5</ele>
        <time>2022-09-19T09:07:44Z</time>
      </trkpt>
      <trkpt lat="48.30286" lon="6.98757">
        <ele>744.57</ele>
        <time>2022-09-19T09:07:45Z</time>
      </trkpt>
      <trkpt lat="48.30282" lon="6.98756">
        <ele>734.5</ele>
      </trkpt>
      <trkpt lat="48.30274" lon="6.98771">
        <ele>793.6</ele>
        <time>2022-09-19T09:16:43Z</time>
      </trkpt>
      <trkpt lat="48.30273" lon="6.98789">
        <ele>804.8</ele>
        <time>2022-09-19T09:21:21Z</time>
      </trkpt>
      <trkpt lat="48.30273" lon="6.98791">
        <ele>747.36</ele>
        <time>2022-09-19T09:22:02Z</time>
      </trkpt>
      <trkpt lat="48.3027" lon="6.98817">
        <ele>748.18</ele>
        <time>2022-09-19T09:22:04Z</time>
      </trkpt>
      <trkpt lat="48.30269" lon="6.98814">
        <ele>748.83</ele>
        <time>2022-09-19T09:22:18Z</time>
      </trkpt>
      <trkpt lat="48.30265" lon="6.98828">
        <ele>750.74</ele>
        <time>2022-09-19T09:22:32Z</time>
      </trkpt>
      <trkpt lat="48.30265" lon="6.98842">
        <ele>752.32</ele>
        <time>2022-09-19T09:22:46Z</time>
      </trkpt>
      <trkpt lat="48.30263" lon="6.98852">
        <ele>753.78</ele>
        <time>2022-09-19T09:22:57Z</time>
      </trkpt>
      <trkpt lat="48.30264" lon="6.98863">
        <ele>756.01</ele>
        <time>2022-09-19T09:23:10Z</time>
      </trkpt>
      <trkpt lat="48.30266" lon="6.98871">
        <ele>758.48</ele>
        <time>2022-09-19T09:23:27Z</time>
      </trkpt>
      <trkpt lat="48.30267" lon="6.98878">
        <ele>760.54</ele>
        <time>2022-09-19T09:23:42Z</time>
      </trkpt>
      <trkpt lat="48.30265" lon="6.98886">
        <ele>762.43</ele>
        <time>2022-09-19T09:23:56Z</time>
      </trkpt>
      <trkpt lat="48.30264" lon="6.9889">
        <ele>763.5</ele>
        <time>2022-09-19T09:24:02Z</time>
      </trkpt>
      <trkpt lat="48.3026" lon="6.98934">
        <ele>820.4</ele>
        <time>2022-09-19T09:25:20Z</time>
      </trkpt>
      <trkpt lat="48.30283" lon="6.98917">
        <ele>825.8</ele>
        <time>2022-09-19T09:26:22Z</time>
      </trkpt>
      <trkpt lat="48.30286" lon="6.98952">
        <ele>832</ele>
        <time>2022-09-19T09:27:20Z</time>
      </trkpt>
      <trkpt lat="48.30278" lon="6.98991">
        <ele>835.4</ele>
        <time>2022-09-19T09:28:12Z</time>
      </trkpt>
      <trkpt lat="48.30281" lon="6.9903">
        <ele>840.6</ele>
        <time>2022-09-19T09:29:16Z</time>
      </trkpt>
      <trkpt lat="48.30291" lon="6.99066">
        <ele>849.19</ele>
        <time>2022-09-19T09:30:09Z</time>
      </trkpt>
      <trkpt lat="48.30294" lon="6.99105">
        <ele>857</ele>
        <time>2022-09-19T09:31:03Z</time>
      </trkpt>
      <trkpt lat="48.30313" lon="6.9913">
        <ele>858.6</ele>
        <time>2022-09-19T09:31:40Z</time>
      </trkpt>
      <trkpt lat="48.30318" lon="6.99167">
        <ele>864.8</ele>
        <time>2022-09-19T09:32:18Z</time>
      </trkpt>
      <trkpt lat="48.30318" lon="6.99208">
        <ele>866</ele>
        <time>2022-09-19T09:32:42Z</time>
      </trkpt>
      <trkpt lat="48.30326" lon="6.99247">
        <ele>870.8</ele>
        <time>2022-09-19T09:33:21Z</time>
      </trkpt>
      <trkpt lat="48.30324" lon="6.99285">
        <ele>875.4</ele>
        <time>2022-09-19T09:33:54Z</time>
      </trkpt>
      <trkpt lat="48.3033" lon="6.99323">
        <ele>876.6</ele>
        <time>2022-09-19T09:34:34Z</time>
      </trkpt>
      <trkpt lat="48.30338" lon="6.99356">
        <ele>879.8</ele>
        <time>2022-09-19T09:35:17Z</time>
      </trkpt>
      <trkpt lat="48.30339" lon="6.99393">
        <ele>883.19</ele>
        <time>2022-09-19T09:36:02Z</time>
      </trkpt>
      <trkpt lat="48.30349" lon="6.99429">
        <ele>889.6</ele>
        <time>2022-09-19T09:36:44Z</time>
      </trkpt>
      <trkpt lat="48.30361" lon="6.99462">
        <ele>893.8</ele>
        <time>2022-09-19T09:37:17Z</time>
      </trkpt>
      <trkpt lat="48.30378" lon="6.99489">
        <ele>895.4</ele>
        <time>2022-09-19T09:37:59Z</time>
      </trkpt>
      <trkpt lat="48.3039" lon="6.99521">
        <ele>899</ele>
        <time>2022-09-19T09:38:36Z</time>
      </trkpt>
      <trkpt lat="48.30406" lon="6.99554">
        <ele>902.6</ele>
        <time>2022-09-19T09:39:12Z</time>
      </trkpt>
      <trkpt lat="48.30416" lon="6.99584">
        <ele>907</ele>
        <time>2022-09-19T09:40:03Z</time>
      </trkpt>
      <trkpt lat="48.30415" lon="6.99592">
        <ele>914.4</ele>
        <time>2022-09-19T09:41:05Z</time>
      </trkpt>
      <trkpt lat="48.30418" lon="6.99598">
        <ele>919.19</ele>
        <time>2022-09-19T09:44:17Z</time>
      </trkpt>
      <trkpt lat="48.30425" lon="6.99603">
        <ele>916</ele>
        <time>2022-09-19T09:47:28Z</time>
      </trkpt>
      <trkpt lat="48.30432" lon="6.99607">
        <ele>915.6</ele>
        <time>2022-09-19T09:49:45Z</time>
      </trkpt>
      <trkpt lat="48.30431" lon="6.99605">
        <ele>914.4</ele>
        <time>2022-09-19T09:51:35Z</time>
      </trkpt>
      <trkpt lat="48.30434" lon="6.99622">
        <ele>916.4</ele>
        <time>2022-09-19T09:54:32Z</time>
      </trkpt>
      <trkpt lat="48.30436" lon="6.99621">
        <ele>915</ele>
        <time>2022-09-19T09:55:34Z</time>
      </trkpt>
      <trkpt lat="48.30457" lon="6.99647">
        <ele>914.19</ele>
        <time>2022-09-19T09:55:55Z</time>
      </trkpt>
      <trkpt lat="48.30476" lon="6.99675">
        <ele>915.8</ele>
        <time>2022-09-19T09:56:18Z</time>
      </trkpt>
      <trkpt lat="48.30498" lon="6.99698">
        <ele>917.6</ele>
        <time>2022-09-19T09:56:50Z</time>
      </trkpt>
      <trkpt lat="48.30523" lon="6.99712">
        <ele>923.19</ele>
        <time>2022-09-19T09:57:41Z</time>
      </trkpt>
      <trkpt lat="48.30541" lon="6.9974">
        <ele>930.19</ele>
        <time>2022-09-19T09:58:49Z</time>
      </trkpt>
      <trkpt lat="48.30544" lon="6.99778">
        <ele>934</ele>
        <time>2022-09-19T09:59:56Z</time>
      </trkpt>
      <trkpt lat="48.30553" lon="6.99815">
        <ele>934.8</ele>
        <time>2022-09-19T10:00:28Z</time>
      </trkpt>
      <trkpt lat="48.30558" lon="6.99852">
        <ele>933.6</ele>
        <time>2022-09-19T10:01:06Z</time>
      </trkpt>
      <trkpt lat="48.30564" lon="6.99891">
        <ele>935.8</ele>
        <time>2022-09-19T10:01:33Z</time>
      </trkpt>
      <trkpt lat="48.30571" lon="6.9993">
        <ele>934.8</ele>
        <time>2022-09-19T10:02:05Z</time>
      </trkpt>
      <trkpt lat="48.30588" lon="6.99957">
        <ele>934</ele>
        <time>2022-09-19T10:02:30Z</time>
      </trkpt>
      <trkpt lat="48.30598" lon="6.99998">
        <ele>936.19</ele>
        <time>2022-09-19T10:02:51Z</time>
      </trkpt>
      <trkpt lat="48.30613" lon="7.00031">
        <ele>937.6</ele>
        <time>2022-09-19T10:03:18Z</time>
      </trkpt>
      <trkpt lat="48.30629" lon="7.0006">
        <ele>936</ele>
        <time>2022-09-19T10:04:15Z</time>
      </trkpt>
      <trkpt lat="48.30645" lon="7.00085">
        <ele>935.8</ele>
        <time>2022-09-19T10:05:14Z</time>
      </trkpt>
      <trkpt lat="48.30655" lon="7.00113">
        <ele>934</ele>
        <time>2022-09-19T10:05:50Z</time>
      </trkpt>
      <trkpt lat="48.30666" lon="7.00146">
        <ele>933.6</ele>
        <time>2022-09-19T10:06:20Z</time>
      </trkpt>
      <trkpt lat="48.30683" lon="7.00178">
        <ele>934.4</ele>
        <time>2022-09-19T10:07:04Z</time>
      </trkpt>
      <trkpt lat="48.30706" lon="7.00197">
        <ele>932</ele>
        <time>2022-09-19T10:07:32Z</time>
      </trkpt>
      <trkpt lat="48.30724" lon="7.00225">
        <ele>933.19</ele>
        <time>2022-09-19T10:07:56Z</time>
      </trkpt>
      <trkpt lat="48.30746" lon="7.00251">
        <ele>933.4</ele>
        <time>2022-09-19T10:08:18Z</time>
      </trkpt>
      <trkpt lat="48.30765" lon="7.00272">
        <ele>933.6</ele>
        <time>2022-09-19T10:08:46Z</time>
      </trkpt>
      <trkpt lat="48.3078" lon="7.00303">
        <ele>935.4</ele>
        <time>2022-09-19T10:09:25Z</time>
      </trkpt>
      <trkpt lat="48.308" lon="7.0033">
        <ele>942</ele>
        <time>2022-09-19T10:10:49Z</time>
      </trkpt>
      <trkpt lat="48.30797" lon="7.00314">
        <ele>951.19</ele>
        <time>2022-09-19T10:17:49Z</time>
      </trkpt>
      <trkpt lat="48.30801" lon="7.00317">
        <ele>956.8</ele>
        <time>2022-09-19T10:36:19Z</time>
      </trkpt>
      <trkpt lat="48.308" lon="7.00326">
        <ele>951.19</ele>
        <time>2022-09-19T10:44:59Z</time>
      </trkpt>
      <trkpt lat="48.308" lon="7.00341">
        <ele>953.8</ele>
        <time>2022-09-19T10:49:07Z</time>
      </trkpt>
      <trkpt lat="48.30799" lon="7.00358">
        <ele>959</ele>
        <time>2022-09-19T10:58:55Z</time>
      </trkpt>
      <trkpt lat="48.30811" lon="7.00394">
        <ele>956.8</ele>
        <time>2022-09-19T10:59:27Z</time>
      </trkpt>
      <trkpt lat="48.30823" lon="7.00427">
        <ele>954</ele>
        <time>2022-09-19T10:59:58Z</time>
      </trkpt>
      <trkpt lat="48.30824" lon="7.00431">
        <ele>954</ele>
        <time>2022-09-19T11:00:00Z</time>
      </trkpt>
      <trkpt lat="48.30833" lon="7.00465">
        <ele>953.6</ele>
        <time>2022-09-19T11:00:23Z</time>
      </trkpt>
      <trkpt lat="48.30846" lon="7.00501">
        <ele>952.39</ele>
        <time>2022-09-19T11:00:47Z</time>
      </trkpt>
      <trkpt lat="48.30863" lon="7.00529">
        <ele>949.79</ele>
        <time>2022-09-19T11:01:18Z</time>
      </trkpt>
      <trkpt lat="48.30888" lon="7.00537">
        <ele>945.79</ele>
        <time>2022-09-19T11:01:43Z</time>
      </trkpt>
      <trkpt lat="48.30914" lon="7.00544">
        <ele>943.6</ele>
        <time>2022-09-19T11:02:13Z</time>
      </trkpt>
      <trkpt lat="48.30937" lon="7.00562">
        <ele>941.79</ele>
        <time>2022-09-19T11:02:37Z</time>
      </trkpt>
      <trkpt lat="48.30965" lon="7.00573">
        <ele>937.6</ele>
        <time>2022-09-19T11:03:05Z</time>
      </trkpt>
      <trkpt lat="48.30988" lon="7.00584">
        <ele>935.39</ele>
        <time>2022-09-19T11:03:29Z</time>
      </trkpt>
      <trkpt lat="48.31014" lon="7.00595">
        <ele>932.6</ele>
        <time>2022-09-19T11:03:51Z</time>
      </trkpt>
      <trkpt lat="48.3104" lon="7.0061">
        <ele>930.39</ele>
        <time>2022-09-19T11:04:14Z</time>
      </trkpt>
      <trkpt lat="48.31064" lon="7.00622">
        <ele>929.6</ele>
        <time>2022-09-19T11:04:39Z</time>
      </trkpt>
      <trkpt lat="48.3109" lon="7.00641">
        <ele>928.39</ele>
        <time>2022-09-19T11:05:01Z</time>
      </trkpt>
      <trkpt lat="48.31114" lon="7.00656">
        <ele>929.19</ele>
        <time>2022-09-19T11:05:25Z</time>
      </trkpt>
      <trkpt lat="48.31139" lon="7.00671">
        <ele>929</ele>
        <time>2022-09-19T11:05:49Z</time>
      </trkpt>
      <trkpt lat="48.31164" lon="7.00686">
        <ele>930.39</ele>
        <time>2022-09-19T11:06:15Z</time>
      </trkpt>
      <trkpt lat="48.31189" lon="7.00702">
        <ele>931.19</ele>
        <time>2022-09-19T11:06:44Z</time>
      </trkpt>
      <trkpt lat="48.31215" lon="7.0071">
        <ele>930.79</ele>
        <time>2022-09-19T11:07:11Z</time>
      </trkpt>
      <trkpt lat="48.3124" lon="7.00724">
        <ele>931.6</ele>
        <time>2022-09-19T11:07:39Z</time>
      </trkpt>
      <trkpt lat="48.31261" lon="7.00747">
        <ele>934.6</ele>
        <time>2022-09-19T11:08:07Z</time>
      </trkpt>
      <trkpt lat="48.31281" lon="7.00775">
        <ele>937</ele>
        <time>2022-09-19T11:08:34Z</time>
      </trkpt>
      <trkpt lat="48.31303" lon="7.00803">
        <ele>937</ele>
        <time>2022-09-19T11:08:55Z</time>
      </trkpt>
      <trkpt lat="48.31321" lon="7.00831">
        <ele>938.39</ele>
        <time>2022-09-19T11:09:28Z</time>
      </trkpt>
      <trkpt lat="48.31341" lon="7.00858">
        <ele>941.39</ele>
        <time>2022-09-19T11:10:05Z</time>
      </trkpt>
      <trkpt lat="48.31361" lon="7.00879">
        <ele>940.6</ele>
        <time>2022-09-19T11:10:42Z</time>
      </trkpt>
      <trkpt lat="48.31353" lon="7.0088">
        <ele>942</ele>
        <time>2022-09-19T11:12:10Z</time>
      </trkpt>
      <trkpt lat="48.31352" lon="7.00878">
        <ele>947.6</ele>
        <time>2022-09-19T11:13:51Z</time>
      </trkpt>
      <trkpt lat="48.31345" lon="7.00914">
        <ele>940.19</ele>
        <time>2022-09-19T11:14:35Z</time>
      </trkpt>
      <trkpt lat="48.31347" lon="7.00953">
        <ele>937.19</ele>
        <time>2022-09-19T11:15:05Z</time>
      </trkpt>
      <trkpt lat="48.31356" lon="7.00989">
        <ele>930.79</ele>
        <time>2022-09-19T11:16:12Z</time>
      </trkpt>
      <trkpt lat="48.31359" lon="7.01012">
        <ele>925.39</ele>
        <time>2022-09-19T11:17:08Z</time>
      </trkpt>
      <trkpt lat="48.31361" lon="7.01036">
        <ele>919.19</ele>
        <time>2022-09-19T11:18:03Z</time>
      </trkpt>
      <trkpt lat="48.3135" lon="7.01065">
        <ele>912.79</ele>
        <time>2022-09-19T11:18:45Z</time>
      </trkpt>
      <trkpt lat="48.31347" lon="7.01103">
        <ele>910.19</ele>
        <time>2022-09-19T11:19:20Z</time>
      </trkpt>
      <trkpt lat="48.31353" lon="7.01141">
        <ele>905.19</ele>
        <time>2022-09-19T11:19:47Z</time>
      </trkpt>
      <trkpt lat="48.31356" lon="7.01177">
        <ele>900</ele>
        <time>2022-09-19T11:20:14Z</time>
      </trkpt>
      <trkpt lat="48.31356" lon="7.01216">
        <ele>896.19</ele>
        <time>2022-09-19T11:20:57Z</time>
      </trkpt>
      <trkpt lat="48.31363" lon="7.01251">
        <ele>892.79</ele>
        <time>2022-09-19T11:21:28Z</time>
      </trkpt>
      <trkpt lat="48.3136" lon="7.01288">
        <ele>890.6</ele>
        <time>2022-09-19T11:21:58Z</time>
      </trkpt>
      <trkpt lat="48.31371" lon="7.01326">
        <ele>888.6</ele>
        <time>2022-09-19T11:22:27Z</time>
      </trkpt>
      <trkpt lat="48.31383" lon="7.01351">
        <ele>888</ele>
        <time>2022-09-19T11:23:04Z</time>
      </trkpt>
      <trkpt lat="48.31379" lon="7.01355">
        <ele>891.39</ele>
        <time>2022-09-19T11:24:29Z</time>
      </trkpt>
      <trkpt lat="48.31383" lon="7.01389">
        <ele>890.79</ele>
        <time>2022-09-19T11:25:39Z</time>
      </trkpt>
      <trkpt lat="48.31389" lon="7.01427">
        <ele>893.19</ele>
        <time>2022-09-19T11:26:15Z</time>
      </trkpt>
      <trkpt lat="48.31397" lon="7.01464">
        <ele>897</ele>
        <time>2022-09-19T11:26:56Z</time>
      </trkpt>
      <trkpt lat="48.31408" lon="7.01499">
        <ele>898.79</ele>
        <time>2022-09-19T11:27:39Z</time>
      </trkpt>
      <trkpt lat="48.31414" lon="7.01536">
        <ele>901.6</ele>
        <time>2022-09-19T11:28:27Z</time>
      </trkpt>
      <trkpt lat="48.3142" lon="7.01573">
        <ele>904.39</ele>
        <time>2022-09-19T11:29:04Z</time>
      </trkpt>
      <trkpt lat="48.31429" lon="7.01609">
        <ele>910.39</ele>
        <time>2022-09-19T11:29:50Z</time>
      </trkpt>
      <trkpt lat="48.31442" lon="7.01642">
        <ele>913.6</ele>
        <time>2022-09-19T11:30:27Z</time>
      </trkpt>
      <trkpt lat="48.31449" lon="7.01682">
        <ele>919.6</ele>
        <time>2022-09-19T11:31:15Z</time>
      </trkpt>
      <trkpt lat="48.31456" lon="7.0172">
        <ele>922.19</ele>
        <time>2022-09-19T11:32:13Z</time>
      </trkpt>
      <trkpt lat="48.31468" lon="7.01753">
        <ele>923.19</ele>
        <time>2022-09-19T11:32:37Z</time>
      </trkpt>
      <trkpt lat="48.3148" lon="7.01786">
        <ele>923</ele>
        <time>2022-09-19T11:33:20Z</time>
      </trkpt>
      <trkpt lat="48.31482" lon="7.01825">
        <ele>919.79</ele>
        <time>2022-09-19T11:34:02Z</time>
      </trkpt>
      <trkpt lat="48.31493" lon="7.01858">
        <ele>919.79</ele>
        <time>2022-09-19T11:34:58Z</time>
      </trkpt>
      <trkpt lat="48.31502" lon="7.01891">
        <ele>918.39</ele>
        <time>2022-09-19T11:35:47Z</time>
      </trkpt>
      <trkpt lat="48.31506" lon="7.01928">
        <ele>917</ele>
        <time>2022-09-19T11:36:26Z</time>
      </trkpt>
      <trkpt lat="48.31508" lon="7.01968">
        <ele>913</ele>
        <time>2022-09-19T11:37:21Z</time>
      </trkpt>
      <trkpt lat="48.31505" lon="7.01999">
        <ele>910.79</ele>
        <time>2022-09-19T11:37:51Z</time>
      </trkpt>
      <trkpt lat="48.31506" lon="7.02">
        <ele>910.79</ele>
        <time>2022-09-19T11:37:52Z</time>
      </trkpt>
      <trkpt lat="48.31514" lon="7.02038">
        <ele>906.79</ele>
        <time>2022-09-19T11:38:33Z</time>
      </trkpt>
      <trkpt lat="48.31514" lon="7.02077">
        <ele>902.99</ele>
        <time>2022-09-19T11:39:09Z</time>
      </trkpt>
      <trkpt lat="48.31512" lon="7.02103">
        <ele>896.38</ele>
        <time>2022-09-19T11:39:40Z</time>
      </trkpt>
      <trkpt lat="48.31505" lon="7.02143">
        <ele>890.38</ele>
        <time>2022-09-19T11:40:36Z</time>
      </trkpt>
      <trkpt lat="48.31505" lon="7.02179">
        <ele>883.59</ele>
        <time>2022-09-19T11:41:39Z</time>
      </trkpt>
      <trkpt lat="48.31504" lon="7.02215">
        <ele>878.19</ele>
        <time>2022-09-19T11:42:29Z</time>
      </trkpt>
      <trkpt lat="48.315" lon="7.02244">
        <ele>872.38</ele>
        <time>2022-09-19T11:43:11Z</time>
      </trkpt>
      <trkpt lat="48.31499" lon="7.02266">
        <ele>862.99</ele>
        <time>2022-09-19T11:47:09Z</time>
      </trkpt>
      <trkpt lat="48.31488" lon="7.02299">
        <ele>865.79</ele>
        <time>2022-09-19T11:48:00Z</time>
      </trkpt>
      <trkpt lat="48.3148" lon="7.02337">
        <ele>867.99</ele>
        <time>2022-09-19T11:48:43Z</time>
      </trkpt>
      <trkpt lat="48.31481" lon="7.02347">
        <ele>806.6</ele>
      </trkpt>
      <trkpt lat="48.31477" lon="7.02345">
        <ele>806.5</ele>
        <time>2022-09-19T12:01:26Z</time>
      </trkpt>
      <trkpt lat="48.31471" lon="7.02372">
        <ele>808.1</ele>
        <time>2022-09-19T12:06:16Z</time>
      </trkpt>
      <trkpt lat="48.31476" lon="7.02385">
        <ele>870.38</ele>
        <time>2022-09-19T12:07:17Z</time>
      </trkpt>
      <trkpt lat="48.3147" lon="7.024">
        <ele>869.79</ele>
        <time>2022-09-19T12:08:08Z</time>
      </trkpt>
      <trkpt lat="48.31471" lon="7.02423">
        <ele>868.59</ele>
        <time>2022-09-19T12:09:25Z</time>
      </trkpt>
      <trkpt lat="48.31465" lon="7.02465">
        <ele>870.79</ele>
        <time>2022-09-19T12:09:51Z</time>
      </trkpt>
      <trkpt lat="48.31458" lon="7.02501">
        <ele>873.99</ele>
        <time>2022-09-19T12:10:21Z</time>
      </trkpt>
      <trkpt lat="48.3145" lon="7.02537">
        <ele>879.19</ele>
        <time>2022-09-19T12:10:53Z</time>
      </trkpt>
      <trkpt lat="48.31442" lon="7.02575">
        <ele>882.79</ele>
        <time>2022-09-19T12:11:25Z</time>
      </trkpt>
      <trkpt lat="48.31435" lon="7.02614">
        <ele>885.59</ele>
        <time>2022-09-19T12:11:58Z</time>
      </trkpt>
      <trkpt lat="48.3143" lon="7.02652">
        <ele>889.99</ele>
        <time>2022-09-19T12:12:27Z</time>
      </trkpt>
      <trkpt lat="48.31426" lon="7.0269">
        <ele>890.99</ele>
        <time>2022-09-19T12:12:53Z</time>
      </trkpt>
      <trkpt lat="48.31418" lon="7.02725">
        <ele>890.19</ele>
        <time>2022-09-19T12:13:22Z</time>
      </trkpt>
      <trkpt lat="48.31414" lon="7.02764">
        <ele>891.79</ele>
        <time>2022-09-19T12:13:47Z</time>
      </trkpt>
      <trkpt lat="48.31413" lon="7.02797">
        <ele>894.59</ele>
        <time>2022-09-19T12:14:58Z</time>
      </trkpt>
      <trkpt lat="48.31407" lon="7.02849">
        <ele>893.79</ele>
        <time>2022-09-19T12:15:19Z</time>
      </trkpt>
      <trkpt lat="48.31403" lon="7.0289">
        <ele>892.38</ele>
        <time>2022-09-19T12:15:42Z</time>
      </trkpt>
      <trkpt lat="48.31389" lon="7.02927">
        <ele>891.19</ele>
        <time>2022-09-19T12:16:03Z</time>
      </trkpt>
      <trkpt lat="48.3138" lon="7.02946">
        <ele>890.38</ele>
        <time>2022-09-19T12:16:41Z</time>
      </trkpt>
      <trkpt lat="48.31351" lon="7.02934">
        <ele>891.19</ele>
        <time>2022-09-19T12:17:02Z</time>
      </trkpt>
      <trkpt lat="48.31331" lon="7.02912">
        <ele>891.79</ele>
        <time>2022-09-19T12:17:35Z</time>
      </trkpt>
      <trkpt lat="48.31313" lon="7.02889">
        <ele>889.19</ele>
        <time>2022-09-19T12:17:59Z</time>
      </trkpt>
      <trkpt lat="48.31297" lon="7.02859">
        <ele>887.38</ele>
        <time>2022-09-19T12:18:30Z</time>
      </trkpt>
      <trkpt lat="48.31281" lon="7.02834">
        <ele>882.99</ele>
        <time>2022-09-19T12:19:11Z</time>
      </trkpt>
      <trkpt lat="48.31264" lon="7.02815">
        <ele>879.59</ele>
        <time>2022-09-19T12:19:45Z</time>
      </trkpt>
      <trkpt lat="48.31259" lon="7.02774">
        <ele>872.99</ele>
        <time>2022-09-19T12:20:41Z</time>
      </trkpt>
      <trkpt lat="48.31246" lon="7.02748">
        <ele>867.59</ele>
        <time>2022-09-19T12:21:16Z</time>
      </trkpt>
      <trkpt lat="48.3123" lon="7.02718">
        <ele>861.59</ele>
        <time>2022-09-19T12:21:52Z</time>
      </trkpt>
      <trkpt lat="48.31207" lon="7.02701">
        <ele>855.19</ele>
        <time>2022-09-19T12:22:31Z</time>
      </trkpt>
      <trkpt lat="48.31222" lon="7.02671">
        <ele>844.59</ele>
        <time>2022-09-19T12:23:16Z</time>
      </trkpt>
      <trkpt lat="48.31239" lon="7.02648">
        <ele>835.38</ele>
        <time>2022-09-19T12:23:47Z</time>
      </trkpt>
      <trkpt lat="48.31248" lon="7.02611">
        <ele>827.19</ele>
        <time>2022-09-19T12:24:09Z</time>
      </trkpt>
      <trkpt lat="48.31256" lon="7.02579">
        <ele>822.99</ele>
        <time>2022-09-19T12:25:18Z</time>
      </trkpt>
      <trkpt lat="48.31258" lon="7.02564">
        <ele>822.19</ele>
        <time>2022-09-19T12:28:16Z</time>
      </trkpt>
      <trkpt lat="48.31277" lon="7.02535">
        <ele>820.79</ele>
        <time>2022-09-19T12:28:43Z</time>
      </trkpt>
      <trkpt lat="48.31294" lon="7.02504">
        <ele>819.59</ele>
        <time>2022-09-19T12:29:09Z</time>
      </trkpt>
      <trkpt lat="48.31306" lon="7.02472">
        <ele>817.99</ele>
        <time>2022-09-19T12:29:37Z</time>
      </trkpt>
      <trkpt lat="48.31322" lon="7.02441">
        <ele>816.19</ele>
        <time>2022-09-19T12:29:59Z</time>
      </trkpt>
      <trkpt lat="48.31335" lon="7.02405">
        <ele>814.59</ele>
        <time>2022-09-19T12:30:23Z</time>
      </trkpt>
      <trkpt lat="48.31341" lon="7.02367">
        <ele>813.99</ele>
        <time>2022-09-19T12:30:50Z</time>
      </trkpt>
      <trkpt lat="48.31354" lon="7.02335">
        <ele>813.59</ele>
        <time>2022-09-19T12:31:14Z</time>
      </trkpt>
      <trkpt lat="48.31354" lon="7.02331">
        <ele>813.59</ele>
        <time>2022-09-19T12:31:15Z</time>
      </trkpt>
      <trkpt lat="48.31357" lon="7.0227">
        <ele>812.99</ele>
        <time>2022-09-19T12:31:36Z</time>
      </trkpt>
      <trkpt lat="48.31362" lon="7.02234">
        <ele>812.99</ele>
        <time>2022-09-19T12:31:57Z</time>
      </trkpt>
      <trkpt lat="48.3136" lon="7.02199">
        <ele>811.79</ele>
        <time>2022-09-19T12:32:27Z</time>
      </trkpt>
      <trkpt lat="48.31357" lon="7.02155">
        <ele>812.59</ele>
        <time>2022-09-19T12:32:48Z</time>
      </trkpt>
      <trkpt lat="48.31352" lon="7.0212">
        <ele>812.59</ele>
        <time>2022-09-19T12:33:09Z</time>
      </trkpt>
      <trkpt lat="48.31353" lon="7.0208">
        <ele>812.39</ele>
        <time>2022-09-19T12:33:30Z</time>
      </trkpt>
      <trkpt lat="48.31341" lon="7.02046">
        <ele>812.39</ele>
        <time>2022-09-19T12:33:53Z</time>
      </trkpt>
      <trkpt lat="48.31335" lon="7.0201">
        <ele>810.99</ele>
        <time>2022-09-19T12:34:14Z</time>
      </trkpt>
      <trkpt lat="48.31319" lon="7.01978">
        <ele>810.59</ele>
        <time>2022-09-19T12:34:39Z</time>
      </trkpt>
      <trkpt lat="48.31309" lon="7.01943">
        <ele>809.39</ele>
        <time>2022-09-19T12:35:00Z</time>
      </trkpt>
      <trkpt lat="48.31297" lon="7.01907">
        <ele>807.59</ele>
        <time>2022-09-19T12:35:22Z</time>
      </trkpt>
      <trkpt lat="48.31281" lon="7.01875">
        <ele>807.19</ele>
        <time>2022-09-19T12:35:45Z</time>
      </trkpt>
      <trkpt lat="48.3127" lon="7.01841">
        <ele>805.99</ele>
        <time>2022-09-19T12:36:07Z</time>
      </trkpt>
      <trkpt lat="48.31262" lon="7.01803">
        <ele>804.59</ele>
        <time>2022-09-19T12:36:31Z</time>
      </trkpt>
      <trkpt lat="48.31251" lon="7.01765">
        <ele>803.39</ele>
        <time>2022-09-19T12:36:52Z</time>
      </trkpt>
      <trkpt lat="48.31239" lon="7.01727">
        <ele>800.99</ele>
        <time>2022-09-19T12:37:14Z</time>
      </trkpt>
      <trkpt lat="48.31235" lon="7.01689">
        <ele>799.59</ele>
        <time>2022-09-19T12:37:35Z</time>
      </trkpt>
      <trkpt lat="48.31231" lon="7.01649">
        <ele>796.79</ele>
        <time>2022-09-19T12:37:57Z</time>
      </trkpt>
      <trkpt lat="48.31218" lon="7.01614">
        <ele>795.19</ele>
        <time>2022-09-19T12:38:20Z</time>
      </trkpt>
      <trkpt lat="48.31208" lon="7.01575">
        <ele>794.39</ele>
        <time>2022-09-19T12:38:41Z</time>
      </trkpt>
      <trkpt lat="48.31206" lon="7.01535">
        <ele>794.39</ele>
        <time>2022-09-19T12:39:06Z</time>
      </trkpt>
      <trkpt lat="48.31193" lon="7.01499">
        <ele>794.39</ele>
        <time>2022-09-19T12:39:28Z</time>
      </trkpt>
      <trkpt lat="48.31187" lon="7.01462">
        <ele>794.99</ele>
        <time>2022-09-19T12:39:50Z</time>
      </trkpt>
      <trkpt lat="48.31177" lon="7.01423">
        <ele>792.59</ele>
        <time>2022-09-19T12:40:11Z</time>
      </trkpt>
      <trkpt lat="48.31176" lon="7.01384">
        <ele>788.99</ele>
        <time>2022-09-19T12:40:34Z</time>
      </trkpt>
      <trkpt lat="48.31167" lon="7.01344">
        <ele>782.79</ele>
        <time>2022-09-19T12:40:58Z</time>
      </trkpt>
      <trkpt lat="48.31162" lon="7.01305">
        <ele>779.19</ele>
        <time>2022-09-19T12:41:20Z</time>
      </trkpt>
      <trkpt lat="48.31147" lon="7.01273">
        <ele>777.39</ele>
        <time>2022-09-19T12:41:45Z</time>
      </trkpt>
      <trkpt lat="48.31141" lon="7.01236">
        <ele>775.79</ele>
        <time>2022-09-19T12:42:06Z</time>
      </trkpt>
      <trkpt lat="48.31136" lon="7.01197">
        <ele>777.59</ele>
        <time>2022-09-19T12:42:27Z</time>
      </trkpt>
      <trkpt lat="48.31118" lon="7.01174">
        <ele>774.99</ele>
        <time>2022-09-19T12:42:50Z</time>
      </trkpt>
      <trkpt lat="48.31098" lon="7.01152">
        <ele>770.79</ele>
        <time>2022-09-19T12:43:30Z</time>
      </trkpt>
      <trkpt lat="48.31082" lon="7.01124">
        <ele>765.19</ele>
        <time>2022-09-19T12:44:14Z</time>
      </trkpt>
      <trkpt lat="48.31036" lon="7.01076">
        <ele>762.99</ele>
        <time>2022-09-19T12:44:35Z</time>
      </trkpt>
      <trkpt lat="48.31013" lon="7.01055">
        <ele>758.39</ele>
        <time>2022-09-19T12:45:19Z</time>
      </trkpt>
      <trkpt lat="48.3095" lon="7.01059">
        <ele>756.59</ele>
        <time>2022-09-19T12:45:40Z</time>
      </trkpt>
      <trkpt lat="48.30921" lon="7.01053">
        <ele>745.59</ele>
        <time>2022-09-19T12:46:41Z</time>
      </trkpt>
      <trkpt lat="48.30882" lon="7.01058">
        <ele>741.19</ele>
        <time>2022-09-19T12:47:02Z</time>
      </trkpt>
      <trkpt lat="48.30851" lon="7.01071">
        <ele>733.79</ele>
        <time>2022-09-19T12:47:23Z</time>
      </trkpt>
      <trkpt lat="48.30833" lon="7.01079">
        <ele>727.79</ele>
        <time>2022-09-19T12:47:50Z</time>
      </trkpt>
      <trkpt lat="48.30799" lon="7.01094">
        <ele>721.79</ele>
        <time>2022-09-19T12:48:11Z</time>
      </trkpt>
      <trkpt lat="48.30771" lon="7.01113">
        <ele>718.19</ele>
        <time>2022-09-19T12:48:32Z</time>
      </trkpt>
      <trkpt lat="48.30744" lon="7.01122">
        <ele>716.19</ele>
        <time>2022-09-19T12:48:53Z</time>
      </trkpt>
      <trkpt lat="48.30719" lon="7.01124">
        <ele>717.39</ele>
        <time>2022-09-19T12:49:30Z</time>
      </trkpt>
      <trkpt lat="48.30696" lon="7.01113">
        <ele>717.19</ele>
        <time>2022-09-19T12:49:56Z</time>
      </trkpt>
      <trkpt lat="48.30666" lon="7.01099">
        <ele>718.99</ele>
        <time>2022-09-19T12:50:17Z</time>
      </trkpt>
      <trkpt lat="48.30645" lon="7.01075">
        <ele>721.19</ele>
        <time>2022-09-19T12:50:49Z</time>
      </trkpt>
      <trkpt lat="48.30623" lon="7.01053">
        <ele>719.79</ele>
        <time>2022-09-19T12:51:10Z</time>
      </trkpt>
      <trkpt lat="48.30598" lon="7.01039">
        <ele>721.19</ele>
        <time>2022-09-19T12:51:34Z</time>
      </trkpt>
      <trkpt lat="48.30573" lon="7.01021">
        <ele>723.39</ele>
        <time>2022-09-19T12:52:24Z</time>
      </trkpt>
      <trkpt lat="48.30544" lon="7.00993">
        <ele>725.39</ele>
        <time>2022-09-19T12:52:45Z</time>
      </trkpt>
      <trkpt lat="48.3052" lon="7.00974">
        <ele>727.19</ele>
        <time>2022-09-19T12:53:07Z</time>
      </trkpt>
      <trkpt lat="48.305" lon="7.00946">
        <ele>729.99</ele>
        <time>2022-09-19T12:53:34Z</time>
      </trkpt>
      <trkpt lat="48.30487" lon="7.00914">
        <ele>731.19</ele>
        <time>2022-09-19T12:54:00Z</time>
      </trkpt>
      <trkpt lat="48.30474" lon="7.00879">
        <ele>732.19</ele>
        <time>2022-09-19T12:54:28Z</time>
      </trkpt>
      <trkpt lat="48.30471" lon="7.0084">
        <ele>731.39</ele>
        <time>2022-09-19T12:54:53Z</time>
      </trkpt>
      <trkpt lat="48.30472" lon="7.00799">
        <ele>730.99</ele>
        <time>2022-09-19T12:55:22Z</time>
      </trkpt>
      <trkpt lat="48.30483" lon="7.00764">
        <ele>732.79</ele>
        <time>2022-09-19T12:55:46Z</time>
      </trkpt>
      <trkpt lat="48.30493" lon="7.00727">
        <ele>735.39</ele>
        <time>2022-09-19T12:56:15Z</time>
      </trkpt>
      <trkpt lat="48.30493" lon="7.00723">
        <ele>735.39</ele>
        <time>2022-09-19T12:56:17Z</time>
      </trkpt>
      <trkpt lat="48.30482" lon="7.00686">
        <ele>736.99</ele>
        <time>2022-09-19T12:56:44Z</time>
      </trkpt>
      <trkpt lat="48.30487" lon="7.00648">
        <ele>737.78</ele>
        <time>2022-09-19T12:57:09Z</time>
      </trkpt>
      <trkpt lat="48.30503" lon="7.00616">
        <ele>740.99</ele>
        <time>2022-09-19T12:57:33Z</time>
      </trkpt>
      <trkpt lat="48.30518" lon="7.00593">
        <ele>753.99</ele>
        <time>2022-09-19T13:00:37Z</time>
      </trkpt>
      <trkpt lat="48.30529" lon="7.00557">
        <ele>754.78</ele>
        <time>2022-09-19T13:01:30Z</time>
      </trkpt>
      <trkpt lat="48.30528" lon="7.00517">
        <ele>755.78</ele>
        <time>2022-09-19T13:01:56Z</time>
      </trkpt>
      <trkpt lat="48.30514" lon="7.00483">
        <ele>759.18</ele>
        <time>2022-09-19T13:02:22Z</time>
      </trkpt>
      <trkpt lat="48.30494" lon="7.00453">
        <ele>758.59</ele>
        <time>2022-09-19T13:03:53Z</time>
      </trkpt>
      <trkpt lat="48.30484" lon="7.00418">
        <ele>759.18</ele>
        <time>2022-09-19T13:04:15Z</time>
      </trkpt>
      <trkpt lat="48.3047" lon="7.00387">
        <ele>761.39</ele>
        <time>2022-09-19T13:04:44Z</time>
      </trkpt>
      <trkpt lat="48.30458" lon="7.00358">
        <ele>762.39</ele>
        <time>2022-09-19T13:05:09Z</time>
      </trkpt>
      <trkpt lat="48.30437" lon="7.00334">
        <ele>763.78</ele>
        <time>2022-09-19T13:05:33Z</time>
      </trkpt>
      <trkpt lat="48.30424" lon="7.00307">
        <ele>767.18</ele>
        <time>2022-09-19T13:05:57Z</time>
      </trkpt>
      <trkpt lat="48.30433" lon="7.00267">
        <ele>774.39</ele>
        <time>2022-09-19T13:06:23Z</time>
      </trkpt>
      <trkpt lat="48.30414" lon="7.00242">
        <ele>776.39</ele>
        <time>2022-09-19T13:06:49Z</time>
      </trkpt>
      <trkpt lat="48.304" lon="7.00208">
        <ele>776.39</ele>
        <time>2022-09-19T13:07:17Z</time>
      </trkpt>
      <trkpt lat="48.30376" lon="7.00183">
        <ele>775.99</ele>
        <time>2022-09-19T13:07:38Z</time>
      </trkpt>
      <trkpt lat="48.30374" lon="7.00147">
        <ele>781.39</ele>
        <time>2022-09-19T13:08:03Z</time>
      </trkpt>
      <trkpt lat="48.30364" lon="7.0011">
        <ele>780.78</ele>
        <time>2022-09-19T13:08:25Z</time>
      </trkpt>
      <trkpt lat="48.30354" lon="7.00079">
        <ele>780.99</ele>
        <time>2022-09-19T13:09:57Z</time>
      </trkpt>
      <trkpt lat="48.30345" lon="7.00043">
        <ele>778.59</ele>
        <time>2022-09-19T13:10:23Z</time>
      </trkpt>
      <trkpt lat="48.30332" lon="7.00006">
        <ele>778.78</ele>
        <time>2022-09-19T13:10:44Z</time>
      </trkpt>
      <trkpt lat="48.30328" lon="6.99967">
        <ele>778.78</ele>
        <time>2022-09-19T13:11:06Z</time>
      </trkpt>
      <trkpt lat="48.30314" lon="6.99935">
        <ele>779.39</ele>
        <time>2022-09-19T13:11:30Z</time>
      </trkpt>
      <trkpt lat="48.30308" lon="6.99898">
        <ele>782.39</ele>
        <time>2022-09-19T13:11:51Z</time>
      </trkpt>
      <trkpt lat="48.30291" lon="6.99871">
        <ele>785.99</ele>
        <time>2022-09-19T13:12:14Z</time>
      </trkpt>
      <trkpt lat="48.30271" lon="6.99857">
        <ele>787.78</ele>
        <time>2022-09-19T13:13:03Z</time>
      </trkpt>
      <trkpt lat="48.30263" lon="6.99842">
        <ele>792.59</ele>
        <time>2022-09-19T13:14:11Z</time>
      </trkpt>
      <trkpt lat="48.30236" lon="6.99835">
        <ele>786.59</ele>
        <time>2022-09-19T13:15:05Z</time>
      </trkpt>
      <trkpt lat="48.30212" lon="6.99825">
        <ele>778.59</ele>
        <time>2022-09-19T13:15:41Z</time>
      </trkpt>
      <trkpt lat="48.30187" lon="6.99829">
        <ele>771.18</ele>
        <time>2022-09-19T13:16:26Z</time>
      </trkpt>
      <trkpt lat="48.30165" lon="6.99838">
        <ele>766.78</ele>
        <time>2022-09-19T13:17:00Z</time>
      </trkpt>
      <trkpt lat="48.30142" lon="6.99822">
        <ele>761.18</ele>
        <time>2022-09-19T13:17:32Z</time>
      </trkpt>
      <trkpt lat="48.30116" lon="6.99809">
        <ele>755.18</ele>
        <time>2022-09-19T13:18:06Z</time>
      </trkpt>
      <trkpt lat="48.30101" lon="6.99779">
        <ele>747.78</ele>
        <time>2022-09-19T13:19:00Z</time>
      </trkpt>
      <trkpt lat="48.3008" lon="6.9976">
        <ele>742.99</ele>
        <time>2022-09-19T13:19:26Z</time>
      </trkpt>
      <trkpt lat="48.30062" lon="6.99729">
        <ele>738.78</ele>
        <time>2022-09-19T13:19:51Z</time>
      </trkpt>
      <trkpt lat="48.30044" lon="6.99699">
        <ele>736.39</ele>
        <time>2022-09-19T13:20:23Z</time>
      </trkpt>
      <trkpt lat="48.3002" lon="6.99687">
        <ele>732.99</ele>
        <time>2022-09-19T13:20:58Z</time>
      </trkpt>
      <trkpt lat="48.29998" lon="6.99657">
        <ele>726.59</ele>
        <time>2022-09-19T13:21:30Z</time>
      </trkpt>
      <trkpt lat="48.29986" lon="6.99622">
        <ele>719.99</ele>
        <time>2022-09-19T13:22:01Z</time>
      </trkpt>
      <trkpt lat="48.29971" lon="6.99591">
        <ele>717.18</ele>
        <time>2022-09-19T13:22:29Z</time>
      </trkpt>
      <trkpt lat="48.29956" lon="6.9956">
        <ele>712.59</ele>
        <time>2022-09-19T13:22:58Z</time>
      </trkpt>
      <trkpt lat="48.29947" lon="6.99522">
        <ele>707.18</ele>
        <time>2022-09-19T13:23:20Z</time>
      </trkpt>
      <trkpt lat="48.29941" lon="6.99478">
        <ele>701.18</ele>
        <time>2022-09-19T13:23:41Z</time>
      </trkpt>
      <trkpt lat="48.2994" lon="6.99438">
        <ele>698.99</ele>
        <time>2022-09-19T13:24:04Z</time>
      </trkpt>
      <trkpt lat="48.2994" lon="6.99399">
        <ele>699.18</ele>
        <time>2022-09-19T13:24:38Z</time>
      </trkpt>
      <trkpt lat="48.29936" lon="6.99358">
        <ele>695.99</ele>
        <time>2022-09-19T13:25:00Z</time>
      </trkpt>
      <trkpt lat="48.29929" lon="6.99316">
        <ele>690.39</ele>
        <time>2022-09-19T13:25:28Z</time>
      </trkpt>
      <trkpt lat="48.2992" lon="6.99278">
        <ele>683.18</ele>
        <time>2022-09-19T13:25:52Z</time>
      </trkpt>
      <trkpt lat="48.29911" lon="6.99241">
        <ele>675.39</ele>
        <time>2022-09-19T13:26:16Z</time>
      </trkpt>
      <trkpt lat="48.29908" lon="6.99204">
        <ele>667.39</ele>
        <time>2022-09-19T13:26:43Z</time>
      </trkpt>
      <trkpt lat="48.29891" lon="6.99175">
        <ele>662.39</ele>
        <time>2022-09-19T13:27:09Z</time>
      </trkpt>
      <trkpt lat="48.29875" lon="6.99148">
        <ele>658.39</ele>
        <time>2022-09-19T13:27:35Z</time>
      </trkpt>
      <trkpt lat="48.29877" lon="6.99109">
        <ele>652.58</ele>
        <time>2022-09-19T13:28:03Z</time>
      </trkpt>
      <trkpt lat="48.29878" lon="6.99043">
        <ele>644.39</ele>
        <time>2022-09-19T13:29:16Z</time>
      </trkpt>
      <trkpt lat="48.29867" lon="6.98978">
        <ele>642.18</ele>
        <time>2022-09-19T13:29:37Z</time>
      </trkpt>
      <trkpt lat="48.29862" lon="6.98932">
        <ele>640.58</ele>
        <time>2022-09-19T13:29:58Z</time>
      </trkpt>
      <trkpt lat="48.2986" lon="6.98898">
        <ele>637.39</ele>
        <time>2022-09-19T13:30:52Z</time>
      </trkpt>
      <trkpt lat="48.29858" lon="6.98882">
        <ele>637.39</ele>
        <time>2022-09-19T13:30:54Z</time>
      </trkpt>
      <trkpt lat="48.29842" lon="6.98813">
        <ele>631.99</ele>
        <time>2022-09-19T13:31:15Z</time>
      </trkpt>
      <trkpt lat="48.29834" lon="6.98775">
        <ele>624.78</ele>
        <time>2022-09-19T13:31:39Z</time>
      </trkpt>
      <trkpt lat="48.29825" lon="6.98739">
        <ele>619.58</ele>
        <time>2022-09-19T13:32:01Z</time>
      </trkpt>
      <trkpt lat="48.29803" lon="6.98716">
        <ele>603.99</ele>
        <time>2022-09-19T13:34:14Z</time>
      </trkpt>
      <trkpt lat="48.29763" lon="6.98718">
        <ele>601.18</ele>
        <time>2022-09-19T13:34:35Z</time>
      </trkpt>
      <trkpt lat="48.2974" lon="6.98723">
        <ele>591.58</ele>
        <time>2022-09-19T13:35:19Z</time>
      </trkpt>
      <trkpt lat="48.29728" lon="6.9872">
        <ele>583.78</ele>
        <time>2022-09-19T13:37:05Z</time>
      </trkpt>
      <trkpt lat="48.29729" lon="6.9871">
        <ele>579.39</ele>
        <time>2022-09-19T13:38:35Z</time>
      </trkpt>
      <trkpt lat="48.29735" lon="6.98729">
        <ele>567.78</ele>
        <time>2022-09-19T13:39:56Z</time>
      </trkpt>
      <trkpt lat="48.29731" lon="6.98734">
        <ele>552.58</ele>
        <time>2022-09-19T13:41:23Z</time>
      </trkpt>
      <trkpt lat="48.29732" lon="6.98722">
        <ele>550.78</ele>
        <time>2022-09-19T13:43:13Z</time>
      </trkpt>
      <trkpt lat="48.29736" lon="6.9873">
        <ele>553.39</ele>
        <time>2022-09-19T13:47:38Z</time>
      </trkpt>
      <trkpt lat="48.29729" lon="6.98735">
        <ele>547.18</ele>
        <time>2022-09-19T13:56:45Z</time>
      </trkpt>
      <trkpt lat="48.29704" lon="6.98721">
        <ele>547.18</ele>
        <time>2022-09-19T13:57:27Z</time>
      </trkpt>
      <trkpt lat="48.29689" lon="6.98691">
        <ele>546.78</ele>
        <time>2022-09-19T13:57:56Z</time>
      </trkpt>
      <trkpt lat="48.29672" lon="6.98668">
        <ele>544.58</ele>
        <time>2022-09-19T13:58:35Z</time>
      </trkpt>
      <trkpt lat="48.29646" lon="6.98671">
        <ele>542.58</ele>
        <time>2022-09-19T13:58:56Z</time>
      </trkpt>
      <trkpt lat="48.29622" lon="6.98646">
        <ele>540.78</ele>
        <time>2022-09-19T13:59:21Z</time>
      </trkpt>
      <trkpt lat="48.29602" lon="6.98612">
        <ele>539.58</ele>
        <time>2022-09-19T13:59:43Z</time>
      </trkpt>
      <trkpt lat="48.29571" lon="6.98607">
        <ele>537.78</ele>
        <time>2022-09-19T14:00:04Z</time>
      </trkpt>
      <trkpt lat="48.29552" lon="6.98591">
        <ele>531.39</ele>
        <time>2022-09-19T14:00:39Z</time>
      </trkpt>
      <trkpt lat="48.29544" lon="6.98552">
        <ele>526.39</ele>
        <time>2022-09-19T14:01:10Z</time>
      </trkpt>
      <trkpt lat="48.29551" lon="6.98515">
        <ele>521.99</ele>
        <time>2022-09-19T14:01:31Z</time>
      </trkpt>
      <trkpt lat="48.2956" lon="6.98477">
        <ele>517.18</ele>
        <time>2022-09-19T14:01:56Z</time>
      </trkpt>
      <trkpt lat="48.29584" lon="6.98462">
        <ele>515.99</ele>
        <time>2022-09-19T14:02:18Z</time>
      </trkpt>
      <trkpt lat="48.29596" lon="6.98429">
        <ele>514.18</ele>
        <time>2022-09-19T14:02:41Z</time>
      </trkpt>
      <trkpt lat="48.29577" lon="6.98408">
        <ele>514.18</ele>
        <time>2022-09-19T14:03:02Z</time>
      </trkpt>
      <trkpt lat="48.29551" lon="6.9839">
        <ele>514.58</ele>
        <time>2022-09-19T14:03:23Z</time>
      </trkpt>
      <trkpt lat="48.29543" lon="6.98352">
        <ele>513.78</ele>
        <time>2022-09-19T14:03:52Z</time>
      </trkpt>
      <trkpt lat="48.2954" lon="6.98312">
        <ele>512.38</ele>
        <time>2022-09-19T14:04:13Z</time>
      </trkpt>
      <trkpt lat="48.29531" lon="6.98275">
        <ele>508.58</ele>
        <time>2022-09-19T14:04:40Z</time>
      </trkpt>
      <trkpt lat="48.29524" lon="6.98232">
        <ele>503.18</ele>
        <time>2022-09-19T14:05:13Z</time>
      </trkpt>
      <trkpt lat="48.2952" lon="6.98194">
        <ele>501.58</ele>
        <time>2022-09-19T14:05:38Z</time>
      </trkpt>
      <trkpt lat="48.29537" lon="6.98167">
        <ele>499.78</ele>
        <time>2022-09-19T14:06:36Z</time>
      </trkpt>
      <trkpt lat="48.29549" lon="6.98131">
        <ele>498.18</ele>
        <time>2022-09-19T14:06:59Z</time>
      </trkpt>
      <trkpt lat="48.29542" lon="6.98092">
        <ele>494.18</ele>
        <time>2022-09-19T14:07:20Z</time>
      </trkpt>
      <trkpt lat="48.29538" lon="6.98053">
        <ele>493.99</ele>
        <time>2022-09-19T14:07:56Z</time>
      </trkpt>
      <trkpt lat="48.29534" lon="6.9799">
        <ele>489.58</ele>
        <time>2022-09-19T14:08:17Z</time>
      </trkpt>
      <trkpt lat="48.2953" lon="6.9795">
        <ele>483.99</ele>
        <time>2022-09-19T14:08:50Z</time>
      </trkpt>
      <trkpt lat="48.29522" lon="6.9791">
        <ele>480.58</ele>
        <time>2022-09-19T14:09:12Z</time>
      </trkpt>
      <trkpt lat="48.29515" lon="6.97871">
        <ele>478.18</ele>
        <time>2022-09-19T14:09:45Z</time>
      </trkpt>
      <trkpt lat="48.29516" lon="6.97829">
        <ele>476.78</ele>
        <time>2022-09-19T14:10:06Z</time>
      </trkpt>
      <trkpt lat="48.29504" lon="6.97795">
        <ele>478.18</ele>
        <time>2022-09-19T14:10:31Z</time>
      </trkpt>
      <trkpt lat="48.29483" lon="6.97766">
        <ele>474.78</ele>
        <time>2022-09-19T14:11:43Z</time>
      </trkpt>
      <trkpt lat="48.29466" lon="6.97732">
        <ele>473.18</ele>
        <time>2022-09-19T14:12:05Z</time>
      </trkpt>
      <trkpt lat="48.29447" lon="6.977">
        <ele>471.99</ele>
        <time>2022-09-19T14:12:45Z</time>
      </trkpt>
      <trkpt lat="48.29433" lon="6.97669">
        <ele>472.38</ele>
        <time>2022-09-19T14:13:23Z</time>
      </trkpt>
      <trkpt lat="48.29419" lon="6.97629">
        <ele>472.38</ele>
        <time>2022-09-19T14:13:45Z</time>
      </trkpt>
      <trkpt lat="48.29407" lon="6.9759">
        <ele>472.18</ele>
        <time>2022-09-19T14:14:20Z</time>
      </trkpt>
      <trkpt lat="48.29402" lon="6.97546">
        <ele>471.78</ele>
        <time>2022-09-19T14:14:41Z</time>
      </trkpt>
      <trkpt lat="48.29398" lon="6.97504">
        <ele>470.38</ele>
        <time>2022-09-19T14:15:02Z</time>
      </trkpt>
      <trkpt lat="48.29395" lon="6.97459">
        <ele>468.38</ele>
        <time>2022-09-19T14:15:58Z</time>
      </trkpt>
      <trkpt lat="48.29405" lon="6.97397">
        <ele>468.38</ele>
        <time>2022-09-19T14:16:19Z</time>
      </trkpt>
      <trkpt lat="48.29413" lon="6.97356">
        <ele>466.38</ele>
        <time>2022-09-19T14:16:40Z</time>
      </trkpt>
      <trkpt lat="48.29409" lon="6.97317">
        <ele>464.99</ele>
        <time>2022-09-19T14:17:02Z</time>
      </trkpt>
      <trkpt lat="48.294" lon="6.97277">
        <ele>464.78</ele>
        <time>2022-09-19T14:17:25Z</time>
      </trkpt>
      <trkpt lat="48.29389" lon="6.97241">
        <ele>464.38</ele>
        <time>2022-09-19T14:17:56Z</time>
      </trkpt>
      <trkpt lat="48.29374" lon="6.97197">
        <ele>463.99</ele>
        <time>2022-09-19T14:18:17Z</time>
      </trkpt>
      <trkpt lat="48.29369" lon="6.97159">
        <ele>461.18</ele>
        <time>2022-09-19T14:18:41Z</time>
      </trkpt>
      <trkpt lat="48.29369" lon="6.97154">
        <ele>461.18</ele>
        <time>2022-09-19T14:18:43Z</time>
      </trkpt>
      <trkpt lat="48.29367" lon="6.97113">
        <ele>457.98</ele>
        <time>2022-09-19T14:19:06Z</time>
      </trkpt>
      <trkpt lat="48.29362" lon="6.97075">
        <ele>453.58</ele>
        <time>2022-09-19T14:19:27Z</time>
      </trkpt>
      <trkpt lat="48.29355" lon="6.97037">
        <ele>448.78</ele>
        <time>2022-09-19T14:19:49Z</time>
      </trkpt>
      <trkpt lat="48.29339" lon="6.97005">
        <ele>448.18</ele>
        <time>2022-09-19T14:20:11Z</time>
      </trkpt>
      <trkpt lat="48.29318" lon="6.96981">
        <ele>448.38</ele>
        <time>2022-09-19T14:20:33Z</time>
      </trkpt>
      <trkpt lat="48.29293" lon="6.96968">
        <ele>446.38</ele>
        <time>2022-09-19T14:20:59Z</time>
      </trkpt>
      <trkpt lat="48.29267" lon="6.96953">
        <ele>445.98</ele>
        <time>2022-09-19T14:21:20Z</time>
      </trkpt>
      <trkpt lat="48.29243" lon="6.96939">
        <ele>445.78</ele>
        <time>2022-09-19T14:21:41Z</time>
      </trkpt>
      <trkpt lat="48.29241" lon="6.96954">
        <ele>448.98</ele>
        <time>2022-09-19T14:22:57Z</time>
      </trkpt>
      <trkpt lat="48.29245" lon="6.96944">
        <ele>452.18</ele>
        <time>2022-09-19T14:23:50Z</time>
      </trkpt>
      <trkpt lat="48.2924" lon="6.96936">
        <ele>452.18</ele>
        <time>2022-09-19T14:24:12Z</time>
      </trkpt>
      <trkpt lat="48.29255" lon="6.96903">
        <ele>452.38</ele>
        <time>2022-09-19T14:24:36Z</time>
      </trkpt>
      <trkpt lat="48.29273" lon="6.96873">
        <ele>448.38</ele>
        <time>2022-09-19T14:25:16Z</time>
      </trkpt>
      <trkpt lat="48.29268" lon="6.96832">
        <ele>437.78</ele>
        <time>2022-09-19T14:25:44Z</time>
      </trkpt>
      <trkpt lat="48.29263" lon="6.96769">
        <ele>436.78</ele>
        <time>2022-09-19T14:26:05Z</time>
      </trkpt>
      <trkpt lat="48.29253" lon="6.96732">
        <ele>436.58</ele>
        <time>2022-09-19T14:26:27Z</time>
      </trkpt>
      <trkpt lat="48.29244" lon="6.96696">
        <ele>437.18</ele>
        <time>2022-09-19T14:26:48Z</time>
      </trkpt>
      <trkpt lat="48.29231" lon="6.96661">
        <ele>433.98</ele>
        <time>2022-09-19T14:27:10Z</time>
      </trkpt>
      <trkpt lat="48.29215" lon="6.96629">
        <ele>432.98</ele>
        <time>2022-09-19T14:27:31Z</time>
      </trkpt>
      <trkpt lat="48.29214" lon="6.96631">
        <ele>373.7</ele>
        <time>2022-09-19T14:28:07Z</time>
      </trkpt>
      <trkpt lat="48.2921" lon="6.96669">
        <ele>429.58</ele>
        <time>2022-09-19T14:28:36Z</time>
      </trkpt>
      <trkpt lat="48.29208" lon="6.96706">
        <ele>379.6</ele>
        <time>2022-09-19T14:28:59Z</time>
      </trkpt>
      <trkpt lat="48.29203" lon="6.96742">
        <ele>430.78</ele>
        <time>2022-09-19T14:29:30Z</time>
      </trkpt>
      <trkpt lat="48.292" lon="6.96777">
        <ele>388.5</ele>
        <time>2022-09-19T14:29:57Z</time>
      </trkpt>
      <trkpt lat="48.29196" lon="6.96804">
        <ele>432.18</ele>
        <time>2022-09-19T14:30:25Z</time>
      </trkpt>
      <trkpt lat="48.29191" lon="6.96837">
        <ele>397.9</ele>
        <time>2022-09-19T14:30:57Z</time>
      </trkpt>
      <trkpt lat="48.29179" lon="6.9687">
        <ele>433.38</ele>
        <time>2022-09-19T14:31:23Z</time>
      </trkpt>
      <trkpt lat="48.29163" lon="6.96898">
        <ele>435.58</ele>
        <time>2022-09-19T14:31:48Z</time>
      </trkpt>
      <trkpt lat="48.2914" lon="6.96924">
        <ele>437.98</ele>
        <time>2022-09-19T14:32:13Z</time>
      </trkpt>
      <trkpt lat="48.29118" lon="6.96947">
        <ele>441.18</ele>
        <time>2022-09-19T14:32:39Z</time>
      </trkpt>
      <trkpt lat="48.29113" lon="6.96956">
        <ele>436.98</ele>
        <time>2022-09-19T14:33:57Z</time>
      </trkpt>
      <trkpt lat="48.29104" lon="6.96936">
        <ele>438.18</ele>
        <time>2022-09-19T14:34:24Z</time>
      </trkpt>
      <trkpt lat="48.29091" lon="6.96909">
        <ele>446.38</ele>
        <time>2022-09-19T14:35:20Z</time>
      </trkpt>
      <trkpt lat="48.2906" lon="6.96883">
        <ele>447.78</ele>
        <time>2022-09-19T14:35:41Z</time>
      </trkpt>
      <trkpt lat="48.29042" lon="6.9685">
        <ele>447.18</ele>
        <time>2022-09-19T14:36:02Z</time>
      </trkpt>
      <trkpt lat="48.29032" lon="6.96813">
        <ele>448.18</ele>
        <time>2022-09-19T14:36:26Z</time>
      </trkpt>
      <trkpt lat="48.29026" lon="6.96775">
        <ele>449.18</ele>
        <time>2022-09-19T14:36:52Z</time>
      </trkpt>
      <trkpt lat="48.29022" lon="6.96734">
        <ele>449.38</ele>
        <time>2022-09-19T14:37:13Z</time>
      </trkpt>
      <trkpt lat="48.29011" lon="6.96698">
        <ele>422.7</ele>
        <time>2022-09-19T14:37:37Z</time>
      </trkpt>
      <trkpt lat="48.29003" lon="6.96664">
        <ele>449.38</ele>
        <time>2022-09-19T14:38:08Z</time>
      </trkpt>
    </trkseg>
  </trk>
</gpx>